createdAt,value
2023-04-23T00:05:57.931Z,9.40
2023-04-23T00:12:40.898Z,9.42
2023-04-23T00:19:23.193Z,9.42
2023-04-23T00:26:05.818Z,9.43
2023-04-23T00:32:48.560Z,9.45
2023-04-23T00:39:30.842Z,9.43
2023-04-23T00:46:13.887Z,9.42
2023-04-23T00:52:56.648Z,9.40
2023-04-23T00:59:38.951Z,9.38
2023-04-23T01:06:21.590Z,9.35
2023-04-23T01:13:04.730Z,9.33
2023-04-23T01:19:47.108Z,9.27
2023-04-23T01:26:29.491Z,9.25
2023-04-23T01:33:11.803Z,9.23
2023-04-23T01:39:54.029Z,9.22
2023-04-23T01:46:36.937Z,9.19
2023-04-23T01:53:19.537Z,9.17
2023-04-23T02:00:11.468Z,9.14
2023-04-23T02:06:57.010Z,9.12
2023-04-23T02:13:39.143Z,9.08
2023-04-23T02:20:22.188Z,9.05
2023-04-23T02:27:04.879Z,9.02
2023-04-23T02:33:47.216Z,8.98
2023-04-23T02:40:29.698Z,8.95
2023-04-23T02:47:11.882Z,8.90
2023-04-23T02:53:54.432Z,8.86
2023-04-23T03:00:36.712Z,8.81
2023-04-23T03:07:19.013Z,8.76
2023-04-23T03:14:01.206Z,8.71
2023-04-23T03:20:43.340Z,8.67
2023-04-23T03:27:25.513Z,8.59
2023-04-23T03:34:07.807Z,8.55
2023-04-23T03:40:51.509Z,8.51
2023-04-23T03:47:33.950Z,8.51
2023-04-23T03:54:16.481Z,8.51
2023-04-23T04:01:18.308Z,8.53
2023-04-23T04:08:01.691Z,8.57
2023-04-23T04:14:46.004Z,8.64
2023-04-23T04:21:28.444Z,8.68
2023-04-23T04:28:11.841Z,8.75
2023-04-23T04:34:54.226Z,8.82
2023-04-23T04:41:37.446Z,8.91
2023-04-23T04:48:20.110Z,9.00
2023-04-23T04:55:02.530Z,9.11
2023-04-23T05:01:44.828Z,9.22
2023-04-23T05:08:27.183Z,9.33
2023-04-23T05:15:13.390Z,9.45
2023-04-23T05:21:55.662Z,9.58
2023-04-23T05:28:37.889Z,9.71
2023-04-23T05:35:20.253Z,9.84
2023-04-23T05:42:03.119Z,9.99
2023-04-23T05:48:45.346Z,10.15
2023-04-23T05:55:27.836Z,10.35
2023-04-23T06:02:11.382Z,10.57
2023-04-23T06:08:53.637Z,10.79
2023-04-23T06:15:35.808Z,11.03
2023-04-23T06:22:18.035Z,11.27
2023-04-23T06:29:00.127Z,11.51
2023-04-23T06:35:46.837Z,11.74
2023-04-23T06:42:29.449Z,12.01
2023-04-23T06:49:27.510Z,12.31
2023-04-23T06:56:09.915Z,12.57
2023-04-23T07:02:52.393Z,12.85
2023-04-23T07:09:34.645Z,13.12
2023-04-23T07:16:17.047Z,13.38
2023-04-23T07:22:59.806Z,13.68
2023-04-23T07:29:41.914Z,13.98
2023-04-23T07:36:24.077Z,14.28
2023-04-23T07:43:06.391Z,14.59
2023-04-23T07:49:48.568Z,14.91
2023-04-23T07:56:32.526Z,15.21
2023-04-23T08:03:14.851Z,15.51
2023-04-23T08:10:02.724Z,15.87
2023-04-23T08:16:45.290Z,16.22
2023-04-23T08:23:28.050Z,16.53
2023-04-23T08:30:10.606Z,16.82
2023-04-23T08:36:52.721Z,17.12
2023-04-23T08:43:57.489Z,17.46
2023-04-23T08:50:43.507Z,17.83
2023-04-23T08:57:26.245Z,18.17
2023-04-23T09:04:10.136Z,18.48
2023-04-23T09:10:52.316Z,18.78
2023-04-23T09:17:36.178Z,19.13
2023-04-23T09:24:19.004Z,19.48
2023-04-23T09:31:01.202Z,19.86
2023-04-23T09:37:49.202Z,20.24
2023-04-23T09:44:35.259Z,20.60
2023-04-23T09:51:17.499Z,20.93
2023-04-23T09:58:00.358Z,21.24
2023-04-23T10:04:42.884Z,21.58
2023-04-23T10:11:25.743Z,21.87
2023-04-23T10:18:08.295Z,22.15
2023-04-23T10:24:57.226Z,22.36
2023-04-23T10:31:40.686Z,22.56
2023-04-23T10:38:23.970Z,22.72
2023-04-23T10:45:25.690Z,22.93
2023-04-23T10:52:21.165Z,23.18
2023-04-23T10:59:08.711Z,23.26
2023-04-23T11:05:50.830Z,23.46
2023-04-23T11:12:33.554Z,23.72
2023-04-23T11:19:19.916Z,23.87
2023-04-23T11:26:05.029Z,23.97
2023-04-23T11:32:53.124Z,24.02
2023-04-23T11:39:35.579Z,24.18
2023-04-23T11:46:17.800Z,24.39
2023-04-23T11:53:08.968Z,24.55
2023-04-23T11:59:53.848Z,24.54
2023-04-23T12:06:36.303Z,24.66
2023-04-23T12:13:27.392Z,24.86
2023-04-23T12:20:19.504Z,25.12
2023-04-23T12:27:02.994Z,25.34
2023-04-23T12:33:45.325Z,25.30
2023-04-23T12:40:27.469Z,25.32
2023-04-23T12:47:15.353Z,25.49
2023-04-23T12:53:57.719Z,25.59
2023-04-23T13:00:40.206Z,25.60
2023-04-23T13:07:22.471Z,25.66
2023-04-23T13:14:05.547Z,25.68
2023-04-23T13:20:47.657Z,25.61
2023-04-23T13:27:31.117Z,25.62
2023-04-23T13:34:13.577Z,25.70
2023-04-23T13:40:55.861Z,25.70
2023-04-23T13:47:38.058Z,25.67
2023-04-23T13:54:20.822Z,25.89
2023-04-23T14:01:04.171Z,25.98
2023-04-23T14:07:46.821Z,26.03
2023-04-23T14:14:29.244Z,26.12
2023-04-23T14:21:11.650Z,26.13
2023-04-23T14:28:02.259Z,26.05
2023-04-23T14:34:45.209Z,25.97
2023-04-23T14:41:27.597Z,26.01
2023-04-23T14:48:10.610Z,25.96
2023-04-23T14:54:55.977Z,25.86
2023-04-23T15:01:38.744Z,25.77
2023-04-23T15:08:21.415Z,25.64
2023-04-23T15:15:05.028Z,25.37
2023-04-23T15:21:48.078Z,25.20
2023-04-23T15:28:30.312Z,24.84
2023-04-23T15:35:12.510Z,24.56
2023-04-23T15:41:54.762Z,24.38
2023-04-23T15:48:37.127Z,24.18
2023-04-23T15:55:19.403Z,24.04
2023-04-23T16:02:03.059Z,23.85
2023-04-23T16:08:45.324Z,23.63
2023-04-23T16:15:28.830Z,23.40
2023-04-23T16:22:11.535Z,23.15
2023-04-23T16:29:05.555Z,22.90
2023-04-23T16:35:54.269Z,22.62
2023-04-23T16:42:36.502Z,22.39
2023-04-23T16:49:18.740Z,22.15
2023-04-23T16:56:00.907Z,21.86
2023-04-23T17:02:43.449Z,21.49
2023-04-23T17:09:25.663Z,21.01
2023-04-23T17:16:07.836Z,20.53
2023-04-23T17:22:50.056Z,20.01
2023-04-23T17:29:32.461Z,19.56
2023-04-23T17:36:16.065Z,19.24
2023-04-23T17:42:58.174Z,18.94
2023-04-23T17:49:40.647Z,18.71
2023-04-23T17:56:23.055Z,18.47
2023-04-23T18:03:07.394Z,18.28
2023-04-23T18:09:49.945Z,18.11
2023-04-23T18:16:32.204Z,17.97
2023-04-23T18:23:14.716Z,17.89
2023-04-23T18:29:58.794Z,17.79
2023-04-23T18:36:44.730Z,17.70
2023-04-23T18:43:28.573Z,17.67
2023-04-23T18:50:43.797Z,17.67
2023-04-23T18:57:26.631Z,17.70
2023-04-23T19:04:09.940Z,17.69
2023-04-23T19:10:52.218Z,17.67
2023-04-23T19:17:35.588Z,17.64
2023-04-23T19:24:17.901Z,17.57
2023-04-23T19:31:00.071Z,17.52
2023-04-23T19:37:42.330Z,17.46
2023-04-23T19:44:24.549Z,17.39
2023-04-23T19:51:06.845Z,17.26
2023-04-23T19:57:49.052Z,17.14
2023-04-23T20:04:31.573Z,17.03
2023-04-23T20:11:13.990Z,16.95
2023-04-23T20:17:56.372Z,16.84
2023-04-23T20:24:40.363Z,16.72
2023-04-23T20:31:22.528Z,16.61
2023-04-23T20:38:04.792Z,16.43
2023-04-23T20:44:47.174Z,16.28
2023-04-23T20:51:29.825Z,16.06
2023-04-23T20:58:12.115Z,15.90
2023-04-23T21:04:55.032Z,15.78
2023-04-23T21:11:37.221Z,15.67
2023-04-23T21:18:19.733Z,15.57
2023-04-23T21:25:03.687Z,15.48
2023-04-23T21:31:48.549Z,15.38
2023-04-23T21:38:30.906Z,15.31
2023-04-23T21:45:13.425Z,15.22
2023-04-23T21:51:56.103Z,15.14
2023-04-23T21:58:38.258Z,15.05
2023-04-23T22:05:22.166Z,14.94
2023-04-23T22:12:05.117Z,14.80
2023-04-23T22:18:47.763Z,14.68
2023-04-23T22:25:30.000Z,14.58
2023-04-23T22:32:12.259Z,14.48
2023-04-23T22:38:54.951Z,14.39
2023-04-23T22:45:37.110Z,14.28
2023-04-23T22:52:19.329Z,14.15
2023-04-23T22:59:05.019Z,14.05
2023-04-23T23:05:47.754Z,13.97
2023-04-23T23:12:29.900Z,13.90
2023-04-23T23:19:12.658Z,13.86
2023-04-23T23:25:55.055Z,13.79
2023-04-23T23:32:37.404Z,13.73
2023-04-23T23:39:20.535Z,13.68
2023-04-23T23:46:02.857Z,13.65
2023-04-23T23:52:45.016Z,13.62
2023-04-23T23:59:27.544Z,13.61
